sensor_id;sensor_type;location;lat;lon;timestamp;temperature;humidity
25140;DHT22;39015;48.106;-1.682;2023-02-13T06:39:53;11.90;66.30
25140;DHT22;39015;48.106;-1.682;2023-02-13T06:42:23;11.90;66.50
25140;DHT22;39015;48.106;-1.682;2023-02-13T06:44:53;11.90;66.40
25140;DHT22;39015;48.106;-1.682;2023-02-13T06:47:20;11.90;66.40
25140;DHT22;39015;48.106;-1.682;2023-02-13T06:49:47;11.90;66.50
25140;DHT22;39015;48.106;-1.682;2023-02-13T06:52:14;11.90;66.40
25140;DHT22;39015;48.106;-1.682;2023-02-13T06:54:41;11.90;66.40
25140;DHT22;39015;48.106;-1.682;2023-02-13T06:57:10;11.90;66.40
25140;DHT22;39015;48.106;-1.682;2023-02-13T06:59:37;12.00;66.40
25140;DHT22;39015;48.106;-1.682;2023-02-13T07:02:04;11.90;66.30
25140;DHT22;39015;48.106;-1.682;2023-02-13T07:04:31;12.00;66.40
25140;DHT22;39015;48.106;-1.682;2023-02-13T07:06:58;11.90;66.30
25140;DHT22;39015;48.106;-1.682;2023-02-13T07:09:25;11.90;66.30
25140;DHT22;39015;48.106;-1.682;2023-02-13T07:11:52;11.90;66.30
25140;DHT22;39015;48.106;-1.682;2023-02-13T07:14:21;11.90;66.20
25140;DHT22;39015;48.106;-1.682;2023-02-13T07:16:48;11.90;66.20
25140;DHT22;39015;48.106;-1.682;2023-02-13T07:19:17;11.90;66.20
25140;DHT22;39015;48.106;-1.682;2023-02-13T07:21:44;11.90;67.10
25140;DHT22;39015;48.106;-1.682;2023-02-13T07:24:12;11.90;66.30
25140;DHT22;39015;48.106;-1.682;2023-02-13T07:26:39;11.90;66.30
25140;DHT22;39015;48.106;-1.682;2023-02-13T07:29:09;11.90;66.40
25140;DHT22;39015;48.106;-1.682;2023-02-13T07:31:41;11.90;66.30
25140;DHT22;39015;48.106;-1.682;2023-02-13T07:34:09;11.90;66.40
25140;DHT22;39015;48.106;-1.682;2023-02-13T07:36:37;11.80;66.30
25140;DHT22;39015;48.106;-1.682;2023-02-13T07:39:04;11.90;66.30
25140;DHT22;39015;48.106;-1.682;2023-02-13T07:41:31;11.80;66.20
25140;DHT22;39015;48.106;-1.682;2023-02-13T07:43:58;11.80;66.20
25140;DHT22;39015;48.106;-1.682;2023-02-13T07:46:26;11.80;66.30
25140;DHT22;39015;48.106;-1.682;2023-02-13T07:48:56;11.80;66.30
25140;DHT22;39015;48.106;-1.682;2023-02-13T07:51:23;11.80;66.40
25140;DHT22;39015;48.106;-1.682;2023-02-13T07:53:51;11.80;66.40
25140;DHT22;39015;48.106;-1.682;2023-02-13T07:56:18;11.80;66.40
25140;DHT22;39015;48.106;-1.682;2023-02-13T07:58:45;11.70;66.40
25140;DHT22;39015;48.106;-1.682;2023-02-13T08:01:14;11.70;66.40
25140;DHT22;39015;48.106;-1.682;2023-02-13T08:03:42;11.70;66.40
25140;DHT22;39015;48.106;-1.682;2023-02-13T08:06:11;11.70;66.50
25140;DHT22;39015;48.106;-1.682;2023-02-13T08:08:37;11.70;66.50
25140;DHT22;39015;48.106;-1.682;2023-02-13T08:11:21;11.70;66.60
25140;DHT22;39015;48.106;-1.682;2023-02-13T08:14:07;11.70;66.60
25140;DHT22;39015;48.106;-1.682;2023-02-13T08:16:34;11.70;66.70
25140;DHT22;39015;48.106;-1.682;2023-02-13T08:19:01;11.70;66.70
25140;DHT22;39015;48.106;-1.682;2023-02-13T08:21:30;11.70;66.80
25140;DHT22;39015;48.106;-1.682;2023-02-13T08:23:57;11.70;66.80
25140;DHT22;39015;48.106;-1.682;2023-02-13T08:26:26;11.70;66.80
25140;DHT22;39015;48.106;-1.682;2023-02-13T08:28:53;11.70;66.80
25140;DHT22;39015;48.106;-1.682;2023-02-13T08:31:20;11.70;66.90
25140;DHT22;39015;48.106;-1.682;2023-02-13T08:33:47;11.70;66.90
25140;DHT22;39015;48.106;-1.682;2023-02-13T08:36:14;11.70;67.00
25140;DHT22;39015;48.106;-1.682;2023-02-13T08:38:42;11.70;67.00
25140;DHT22;39015;48.106;-1.682;2023-02-13T08:41:09;11.70;67.00
25140;DHT22;39015;48.106;-1.682;2023-02-13T08:43:36;11.80;67.00
25140;DHT22;39015;48.106;-1.682;2023-02-13T08:46:04;11.80;67.00
25140;DHT22;39015;48.106;-1.682;2023-02-13T08:48:31;11.80;67.00
25140;DHT22;39015;48.106;-1.682;2023-02-13T08:50:58;11.80;67.00
25140;DHT22;39015;48.106;-1.682;2023-02-13T08:53:25;11.80;67.00
25140;DHT22;39015;48.106;-1.682;2023-02-13T08:55:55;11.80;67.10
25140;DHT22;39015;48.106;-1.682;2023-02-13T08:58:23;11.90;67.10
25140;DHT22;39015;48.106;-1.682;2023-02-13T09:00:50;11.90;67.00
25140;DHT22;39015;48.106;-1.682;2023-02-13T09:03:17;11.90;67.00
25140;DHT22;39015;48.106;-1.682;2023-02-13T09:05:44;11.90;67.10
25140;DHT22;39015;48.106;-1.682;2023-02-13T09:08:12;11.90;67.00
25140;DHT22;39015;48.106;-1.682;2023-02-13T09:10:41;11.90;67.00
25140;DHT22;39015;48.106;-1.682;2023-02-13T09:13:11;11.90;67.00
25140;DHT22;39015;48.106;-1.682;2023-02-13T09:15:38;12.00;67.10
25140;DHT22;39015;48.106;-1.682;2023-02-13T09:18:06;11.90;67.00
25140;DHT22;39015;48.106;-1.682;2023-02-13T09:20:33;12.00;67.00
25140;DHT22;39015;48.106;-1.682;2023-02-13T09:23:00;12.00;67.00
25140;DHT22;39015;48.106;-1.682;2023-02-13T09:25:27;12.00;67.80
25140;DHT22;39015;48.106;-1.682;2023-02-13T09:27:54;12.00;66.90
25140;DHT22;39015;48.106;-1.682;2023-02-13T09:30:22;12.00;66.90
25140;DHT22;39015;48.106;-1.682;2023-02-13T09:32:50;12.10;67.00
25140;DHT22;39015;48.106;-1.682;2023-02-13T09:35:18;12.10;67.00
25140;DHT22;39015;48.106;-1.682;2023-02-13T09:37:45;12.10;67.00
25140;DHT22;39015;48.106;-1.682;2023-02-13T09:40:17;12.10;67.00
25140;DHT22;39015;48.106;-1.682;2023-02-13T09:42:47;12.20;67.10
25140;DHT22;39015;48.106;-1.682;2023-02-13T09:45:16;12.20;67.00
25140;DHT22;39015;48.106;-1.682;2023-02-13T09:47:47;12.20;67.30
25140;DHT22;39015;48.106;-1.682;2023-02-13T09:50:20;12.20;67.10
25140;DHT22;39015;48.106;-1.682;2023-02-13T09:52:56;12.20;67.00
25140;DHT22;39015;48.106;-1.682;2023-02-13T09:55:29;12.20;67.00
25140;DHT22;39015;48.106;-1.682;2023-02-13T09:58:08;12.30;67.00
25140;DHT22;39015;48.106;-1.682;2023-02-13T10:00:42;12.30;67.10
25140;DHT22;39015;48.106;-1.682;2023-02-13T10:03:30;12.30;67.00
25140;DHT22;39015;48.106;-1.682;2023-02-13T10:06:05;12.30;68.00
25140;DHT22;39015;48.106;-1.682;2023-02-13T10:08:46;12.30;67.10
25140;DHT22;39015;48.106;-1.682;2023-02-13T10:11:26;12.30;67.10
25140;DHT22;39015;48.106;-1.682;2023-02-13T10:14:06;12.30;67.10
25140;DHT22;39015;48.106;-1.682;2023-02-13T10:16:41;12.40;67.20
25140;DHT22;39015;48.106;-1.682;2023-02-13T10:19:25;12.40;67.10
25140;DHT22;39015;48.106;-1.682;2023-02-13T10:21:59;12.40;67.20
25140;DHT22;39015;48.106;-1.682;2023-02-13T10:24:34;12.40;67.20
25140;DHT22;39015;48.106;-1.682;2023-02-13T10:27:20;12.50;67.20
25140;DHT22;39015;48.106;-1.682;2023-02-13T10:29:54;12.50;67.10
25140;DHT22;39015;48.106;-1.682;2023-02-13T10:32:53;12.50;67.10
25140;DHT22;39015;48.106;-1.682;2023-02-13T10:35:37;12.60;67.10
25140;DHT22;39015;48.106;-1.682;2023-02-13T10:38:13;12.60;67.10
25140;DHT22;39015;48.106;-1.682;2023-02-13T10:41:02;12.60;67.20
25140;DHT22;39015;48.106;-1.682;2023-02-13T10:43:31;12.60;67.00
25140;DHT22;39015;48.106;-1.682;2023-02-13T10:46:13;12.70;67.10
25140;DHT22;39015;48.106;-1.682;2023-02-13T10:48:51;12.70;67.10
25140;DHT22;39015;48.106;-1.682;2023-02-13T10:51:25;12.70;67.10
25140;DHT22;39015;48.106;-1.682;2023-02-13T10:54:19;12.70;67.00
25140;DHT22;39015;48.106;-1.682;2023-02-13T10:56:50;12.80;67.10
25140;DHT22;39015;48.106;-1.682;2023-02-13T10:59:45;12.80;67.00
25140;DHT22;39015;48.106;-1.682;2023-02-13T11:02:22;12.80;67.00
25140;DHT22;39015;48.106;-1.682;2023-02-13T11:04:52;12.90;67.10
25140;DHT22;39015;48.106;-1.682;2023-02-13T11:07:23;12.90;67.10
25140;DHT22;39015;48.106;-1.682;2023-02-13T11:09:53;12.90;67.10
25140;DHT22;39015;48.106;-1.682;2023-02-13T11:12:26;12.90;67.00
25140;DHT22;39015;48.106;-1.682;2023-02-13T11:14:55;13.00;67.10
25140;DHT22;39015;48.106;-1.682;2023-02-13T11:17:24;13.00;67.00
25140;DHT22;39015;48.106;-1.682;2023-02-13T11:19:54;13.00;67.00
25140;DHT22;39015;48.106;-1.682;2023-02-13T11:22:30;13.10;67.10
25140;DHT22;39015;48.106;-1.682;2023-02-13T11:25:00;13.10;67.00
25140;DHT22;39015;48.106;-1.682;2023-02-13T11:27:31;13.20;67.10
25140;DHT22;39015;48.106;-1.682;2023-02-13T11:30:00;13.20;67.10
25140;DHT22;39015;48.106;-1.682;2023-02-13T11:32:30;13.20;67.00
25140;DHT22;39015;48.106;-1.682;2023-02-13T11:34:59;13.20;66.90
25140;DHT22;39015;48.106;-1.682;2023-02-13T11:37:43;13.30;67.00
25140;DHT22;39015;48.106;-1.682;2023-02-13T11:40:29;13.30;67.00
25140;DHT22;39015;48.106;-1.682;2023-02-13T11:42:58;13.30;67.00
25140;DHT22;39015;48.106;-1.682;2023-02-13T11:45:26;13.40;67.10
25140;DHT22;39015;48.106;-1.682;2023-02-13T11:47:55;13.40;67.00
25140;DHT22;39015;48.106;-1.682;2023-02-13T11:50:25;13.40;67.00
25140;DHT22;39015;48.106;-1.682;2023-02-13T11:53:04;13.40;66.90
25140;DHT22;39015;48.106;-1.682;2023-02-13T11:55:33;13.50;67.00
25140;DHT22;39015;48.106;-1.682;2023-02-13T11:58:18;13.50;67.00
25140;DHT22;39015;48.106;-1.682;2023-02-13T12:00:47;13.50;67.00
25140;DHT22;39015;48.106;-1.682;2023-02-13T12:03:26;13.60;67.10
25140;DHT22;39015;48.106;-1.682;2023-02-13T12:06:00;13.60;67.30
25140;DHT22;39015;48.106;-1.682;2023-02-13T12:08:29;13.70;67.40
25140;DHT22;39015;48.106;-1.682;2023-02-13T12:10:57;13.70;67.20
25140;DHT22;39015;48.106;-1.682;2023-02-13T12:13:28;13.70;67.20
25140;DHT22;39015;48.106;-1.682;2023-02-13T12:15:59;13.80;67.30
25140;DHT22;39015;48.106;-1.682;2023-02-13T12:18:30;13.80;67.30
25140;DHT22;39015;48.106;-1.682;2023-02-13T12:21:03;13.80;67.20
25140;DHT22;39015;48.106;-1.682;2023-02-13T12:23:40;13.80;67.20
25140;DHT22;39015;48.106;-1.682;2023-02-13T12:26:19;13.90;67.30
25140;DHT22;39015;48.106;-1.682;2023-02-13T12:29:02;13.90;67.40
25140;DHT22;39015;48.106;-1.682;2023-02-13T12:31:49;13.90;67.30
25140;DHT22;39015;48.106;-1.682;2023-02-13T12:34:53;13.90;67.30
25140;DHT22;39015;48.106;-1.682;2023-02-13T12:37:45;14.00;67.20
25140;DHT22;39015;48.106;-1.682;2023-02-13T12:40:29;14.00;67.20
25140;DHT22;39015;48.106;-1.682;2023-02-13T12:43:15;14.00;67.20
25140;DHT22;39015;48.106;-1.682;2023-02-13T12:45:53;14.00;67.20
25140;DHT22;39015;48.106;-1.682;2023-02-13T12:48:33;14.10;67.20
25140;DHT22;39015;48.106;-1.682;2023-02-13T12:51:22;14.10;67.10
25140;DHT22;39015;48.106;-1.682;2023-02-13T12:54:22;14.10;67.10
25140;DHT22;39015;48.106;-1.682;2023-02-13T12:57:13;14.10;67.00
25140;DHT22;39015;48.106;-1.682;2023-02-13T12:59:59;14.10;67.00
25140;DHT22;39015;48.106;-1.682;2023-02-13T13:03:02;14.10;67.00
25140;DHT22;39015;48.106;-1.682;2023-02-13T13:05:45;14.10;67.10
25140;DHT22;39015;48.106;-1.682;2023-02-13T13:08:30;14.10;67.00
25140;DHT22;39015;48.106;-1.682;2023-02-13T13:11:17;14.10;67.00
25140;DHT22;39015;48.106;-1.682;2023-02-13T13:13:57;14.20;67.00
25140;DHT22;39015;48.106;-1.682;2023-02-13T13:16:35;14.20;67.00
25140;DHT22;39015;48.106;-1.682;2023-02-13T13:19:15;14.20;67.00
25140;DHT22;39015;48.106;-1.682;2023-02-13T13:21:49;14.20;67.00
25140;DHT22;39015;48.106;-1.682;2023-02-13T13:24:27;14.20;66.90
25140;DHT22;39015;48.106;-1.682;2023-02-13T13:26:59;14.20;66.90
25140;DHT22;39015;48.106;-1.682;2023-02-13T13:29:44;14.20;66.90
25140;DHT22;39015;48.106;-1.682;2023-02-13T13:32:16;14.20;66.90
25140;DHT22;39015;48.106;-1.682;2023-02-13T13:34:46;14.20;67.80
25140;DHT22;39015;48.106;-1.682;2023-02-13T13:37:24;14.20;66.90
25140;DHT22;39015;48.106;-1.682;2023-02-13T13:39:59;14.20;67.00
25140;DHT22;39015;48.106;-1.682;2023-02-13T13:42:34;14.20;67.00
25140;DHT22;39015;48.106;-1.682;2023-02-13T13:45:22;14.20;67.00
25140;DHT22;39015;48.106;-1.682;2023-02-13T13:48:37;14.20;67.00
25140;DHT22;39015;48.106;-1.682;2023-02-13T13:51:14;14.20;67.00
25140;DHT22;39015;48.106;-1.682;2023-02-13T13:54:16;14.20;67.00
25140;DHT22;39015;48.106;-1.682;2023-02-13T13:57:07;14.20;67.00
25140;DHT22;39015;48.106;-1.682;2023-02-13T14:00:00;14.20;67.00
25140;DHT22;39015;48.106;-1.682;2023-02-13T14:02:46;14.20;67.00
25140;DHT22;39015;48.106;-1.682;2023-02-13T14:05:26;14.20;67.00
25140;DHT22;39015;48.106;-1.682;2023-02-13T14:07:58;14.20;67.00
25140;DHT22;39015;48.106;-1.682;2023-02-13T14:13:34;14.20;67.20
25140;DHT22;39015;48.106;-1.682;2023-02-13T14:16:02;14.20;67.20
25140;DHT22;39015;48.106;-1.682;2023-02-13T14:18:30;14.20;67.20
25140;DHT22;39015;48.106;-1.682;2023-02-13T14:21:00;14.20;67.20
25140;DHT22;39015;48.106;-1.682;2023-02-13T14:23:47;14.20;67.20
25140;DHT22;39015;48.106;-1.682;2023-02-13T14:26:36;14.20;67.20
25140;DHT22;39015;48.106;-1.682;2023-02-13T14:29:31;14.20;67.30
25140;DHT22;39015;48.106;-1.682;2023-02-13T14:32:12;14.10;67.30
25140;DHT22;39015;48.106;-1.682;2023-02-13T14:34:45;14.20;67.20
25140;DHT22;39015;48.106;-1.682;2023-02-13T14:37:20;14.20;67.20
25140;DHT22;39015;48.106;-1.682;2023-02-13T14:43:28;14.20;67.20
25140;DHT22;39015;48.106;-1.682;2023-02-13T14:46:03;14.20;67.10
25140;DHT22;39015;48.106;-1.682;2023-02-13T14:48:42;14.20;67.20
25140;DHT22;39015;48.106;-1.682;2023-02-13T14:51:20;14.20;67.20
25140;DHT22;39015;48.106;-1.682;2023-02-13T14:53:57;14.30;67.20
25140;DHT22;39015;48.106;-1.682;2023-02-13T14:56:26;14.30;67.20
25140;DHT22;39015;48.106;-1.682;2023-02-13T14:59:05;14.20;67.10
25140;DHT22;39015;48.106;-1.682;2023-02-13T15:01:43;14.20;67.20
25140;DHT22;39015;48.106;-1.682;2023-02-13T15:04:16;14.20;67.20
25140;DHT22;39015;48.106;-1.682;2023-02-13T15:06:45;14.20;67.20
25140;DHT22;39015;48.106;-1.682;2023-02-13T15:09:27;14.20;67.20
25140;DHT22;39015;48.106;-1.682;2023-02-13T15:11:57;14.20;67.20
25140;DHT22;39015;48.106;-1.682;2023-02-13T15:14:30;14.20;67.30
25140;DHT22;39015;48.106;-1.682;2023-02-13T15:17:02;14.20;67.30
25140;DHT22;39015;48.106;-1.682;2023-02-13T15:19:33;14.20;67.40
25140;DHT22;39015;48.106;-1.682;2023-02-13T15:22:04;14.20;67.40
25140;DHT22;39015;48.106;-1.682;2023-02-13T15:24:37;14.20;67.50
25140;DHT22;39015;48.106;-1.682;2023-02-13T15:27:16;14.20;67.40
25140;DHT22;39015;48.106;-1.682;2023-02-13T15:29:53;14.20;67.50
25140;DHT22;39015;48.106;-1.682;2023-02-13T15:32:26;14.20;67.50
25140;DHT22;39015;48.106;-1.682;2023-02-13T15:34:53;14.20;67.50
25140;DHT22;39015;48.106;-1.682;2023-02-13T15:37:24;14.20;67.50
25140;DHT22;39015;48.106;-1.682;2023-02-13T15:39:53;14.20;67.50
25140;DHT22;39015;48.106;-1.682;2023-02-13T15:42:20;14.20;67.60
25140;DHT22;39015;48.106;-1.682;2023-02-13T15:44:49;14.20;67.60
25140;DHT22;39015;48.106;-1.682;2023-02-13T15:47:17;14.20;67.70
25140;DHT22;39015;48.106;-1.682;2023-02-13T15:49:49;14.20;67.70
25140;DHT22;39015;48.106;-1.682;2023-02-13T15:52:24;14.20;67.80
25140;DHT22;39015;48.106;-1.682;2023-02-13T15:54:54;14.20;67.70
25140;DHT22;39015;48.106;-1.682;2023-02-13T15:57:22;14.20;67.70
25140;DHT22;39015;48.106;-1.682;2023-02-13T15:59:52;14.20;67.70
25140;DHT22;39015;48.106;-1.682;2023-02-13T16:02:23;14.20;67.80
25140;DHT22;39015;48.106;-1.682;2023-02-13T16:04:53;14.20;67.80
25140;DHT22;39015;48.106;-1.682;2023-02-13T16:07:22;14.20;67.90
25140;DHT22;39015;48.106;-1.682;2023-02-13T16:09:49;14.30;67.90
25140;DHT22;39015;48.106;-1.682;2023-02-13T16:12:19;14.20;67.90
25140;DHT22;39015;48.106;-1.682;2023-02-13T16:14:51;14.20;67.90
25140;DHT22;39015;48.106;-1.682;2023-02-13T16:17:26;14.20;67.90
25140;DHT22;39015;48.106;-1.682;2023-02-13T16:19:59;14.20;68.10
25140;DHT22;39015;48.106;-1.682;2023-02-13T16:22:35;14.20;68.10
25140;DHT22;39015;48.106;-1.682;2023-02-13T16:25:14;14.20;68.10
25140;DHT22;39015;48.106;-1.682;2023-02-13T16:27:44;14.20;68.10
25140;DHT22;39015;48.106;-1.682;2023-02-13T16:30:19;14.20;68.10
25140;DHT22;39015;48.106;-1.682;2023-02-13T16:32:48;14.20;68.10
25140;DHT22;39015;48.106;-1.682;2023-02-13T16:35:26;14.20;68.20
25140;DHT22;39015;48.106;-1.682;2023-02-13T16:37:59;14.20;68.20
25140;DHT22;39015;48.106;-1.682;2023-02-13T16:40:37;14.20;68.20
25140;DHT22;39015;48.106;-1.682;2023-02-13T16:43:42;14.20;68.40
25140;DHT22;39015;48.106;-1.682;2023-02-13T16:46:25;14.20;68.30
25140;DHT22;39015;48.106;-1.682;2023-02-13T16:49:15;14.30;68.40
25140;DHT22;39015;48.106;-1.682;2023-02-13T16:51:45;14.30;68.40
25140;DHT22;39015;48.106;-1.682;2023-02-13T16:54:36;14.30;68.30
25140;DHT22;39015;48.106;-1.682;2023-02-13T16:57:19;14.30;68.30
25140;DHT22;39015;48.106;-1.682;2023-02-13T17:00:16;14.30;68.20
25140;DHT22;39015;48.106;-1.682;2023-02-13T17:02:46;14.30;68.20
25140;DHT22;39015;48.106;-1.682;2023-02-13T17:05:19;14.30;68.20
25140;DHT22;39015;48.106;-1.682;2023-02-13T17:07:48;14.30;68.10
25140;DHT22;39015;48.106;-1.682;2023-02-13T17:10:23;14.40;68.30
25140;DHT22;39015;48.106;-1.682;2023-02-13T17:12:57;14.40;68.30
25140;DHT22;39015;48.106;-1.682;2023-02-13T17:15:28;14.40;68.40
25140;DHT22;39015;48.106;-1.682;2023-02-13T17:17:56;14.40;68.20
25140;DHT22;39015;48.106;-1.682;2023-02-13T17:20:25;14.40;68.30
25140;DHT22;39015;48.106;-1.682;2023-02-13T17:22:54;14.40;68.30
25140;DHT22;39015;48.106;-1.682;2023-02-13T17:25:25;14.40;68.30
25140;DHT22;39015;48.106;-1.682;2023-02-13T17:27:54;14.40;68.30
25140;DHT22;39015;48.106;-1.682;2023-02-13T17:30:22;14.40;68.30
25140;DHT22;39015;48.106;-1.682;2023-02-13T17:32:52;14.40;68.40
25140;DHT22;39015;48.106;-1.682;2023-02-13T17:35:21;14.40;68.40
25140;DHT22;39015;48.106;-1.682;2023-02-13T17:37:48;14.40;68.40
25140;DHT22;39015;48.106;-1.682;2023-02-13T17:40:16;14.40;68.50
25140;DHT22;39015;48.106;-1.682;2023-02-13T17:42:46;14.40;68.40
25140;DHT22;39015;48.106;-1.682;2023-02-13T17:45:14;14.40;68.50
25140;DHT22;39015;48.106;-1.682;2023-02-13T17:47:42;14.40;68.40
25140;DHT22;39015;48.106;-1.682;2023-02-13T17:50:09;14.40;68.30
25140;DHT22;39015;48.106;-1.682;2023-02-13T17:52:37;14.40;68.50
25140;DHT22;39015;48.106;-1.682;2023-02-13T17:55:05;14.30;68.40
25140;DHT22;39015;48.106;-1.682;2023-02-13T17:57:33;14.30;68.50
25140;DHT22;39015;48.106;-1.682;2023-02-13T18:00:02;14.30;68.50
25140;DHT22;39015;48.106;-1.682;2023-02-13T18:02:29;14.30;68.50
25140;DHT22;39015;48.106;-1.682;2023-02-13T18:04:58;14.40;68.50
25140;DHT22;39015;48.106;-1.682;2023-02-13T18:07:25;14.40;68.50
25140;DHT22;39015;48.106;-1.682;2023-02-13T18:09:52;14.40;68.40
25140;DHT22;39015;48.106;-1.682;2023-02-13T18:12:20;14.40;68.30
25140;DHT22;39015;48.106;-1.682;2023-02-13T18:14:48;14.40;68.30
25140;DHT22;39015;48.106;-1.682;2023-02-13T18:17:18;14.40;68.30
25140;DHT22;39015;48.106;-1.682;2023-02-13T18:19:45;14.40;68.20
25140;DHT22;39015;48.106;-1.682;2023-02-13T18:22:15;14.40;68.20
25140;DHT22;39015;48.106;-1.682;2023-02-13T18:24:42;14.50;68.20
25140;DHT22;39015;48.106;-1.682;2023-02-13T18:27:09;14.50;68.20
25140;DHT22;39015;48.106;-1.682;2023-02-13T18:29:37;14.50;68.10
25140;DHT22;39015;48.106;-1.682;2023-02-13T18:32:05;14.50;68.10
25140;DHT22;39015;48.106;-1.682;2023-02-13T18:34:35;14.50;68.20
25140;DHT22;39015;48.106;-1.682;2023-02-13T18:37:02;14.50;68.10
25140;DHT22;39015;48.106;-1.682;2023-02-13T18:39:31;14.50;68.10
25140;DHT22;39015;48.106;-1.682;2023-02-13T18:42:05;14.50;68.00
25140;DHT22;39015;48.106;-1.682;2023-02-13T18:44:41;14.50;68.10
25140;DHT22;39015;48.106;-1.682;2023-02-13T18:47:15;14.50;68.10
25140;DHT22;39015;48.106;-1.682;2023-02-13T18:49:49;14.50;68.10
25140;DHT22;39015;48.106;-1.682;2023-02-13T18:52:22;14.50;68.00
25140;DHT22;39015;48.106;-1.682;2023-02-13T18:54:50;14.50;68.00
25140;DHT22;39015;48.106;-1.682;2023-02-13T18:57:17;14.50;69.00
25140;DHT22;39015;48.106;-1.682;2023-02-13T18:59:44;14.50;68.00
25140;DHT22;39015;48.106;-1.682;2023-02-13T19:02:11;14.50;68.10
25140;DHT22;39015;48.106;-1.682;2023-02-13T19:04:39;14.50;68.10
25140;DHT22;39015;48.106;-1.682;2023-02-13T19:07:07;14.40;68.00
25140;DHT22;39015;48.106;-1.682;2023-02-13T19:09:34;14.40;68.10
25140;DHT22;39015;48.106;-1.682;2023-02-13T19:12:05;14.40;68.20
25140;DHT22;39015;48.106;-1.682;2023-02-13T19:14:33;14.40;68.20
25140;DHT22;39015;48.106;-1.682;2023-02-13T19:17:02;14.40;68.20
25140;DHT22;39015;48.106;-1.682;2023-02-13T19:19:29;14.40;68.20
25140;DHT22;39015;48.106;-1.682;2023-02-13T19:21:56;14.30;68.20
25140;DHT22;39015;48.106;-1.682;2023-02-13T19:24:25;14.30;68.30
25140;DHT22;39015;48.106;-1.682;2023-02-13T19:26:52;14.30;68.30
25140;DHT22;39015;48.106;-1.682;2023-02-13T19:29:19;14.30;68.30
25140;DHT22;39015;48.106;-1.682;2023-02-13T19:31:46;14.30;68.30
25140;DHT22;39015;48.106;-1.682;2023-02-13T19:34:13;14.30;68.20
25140;DHT22;39015;48.106;-1.682;2023-02-13T19:36:40;14.30;68.20
25140;DHT22;39015;48.106;-1.682;2023-02-13T19:39:07;14.30;68.20
25140;DHT22;39015;48.106;-1.682;2023-02-13T19:41:35;14.30;68.20
25140;DHT22;39015;48.106;-1.682;2023-02-13T19:44:05;14.30;68.20
25140;DHT22;39015;48.106;-1.682;2023-02-13T19:46:33;14.30;68.20
25140;DHT22;39015;48.106;-1.682;2023-02-13T19:49:01;14.30;68.20
25140;DHT22;39015;48.106;-1.682;2023-02-13T19:51:30;14.30;68.20
25140;DHT22;39015;48.106;-1.682;2023-02-13T19:53:58;14.30;68.10
25140;DHT22;39015;48.106;-1.682;2023-02-13T19:56:26;14.30;68.20
25140;DHT22;39015;48.106;-1.682;2023-02-13T19:58:56;14.30;68.20
25140;DHT22;39015;48.106;-1.682;2023-02-13T20:01:25;14.30;68.20
25140;DHT22;39015;48.106;-1.682;2023-02-13T20:03:52;14.20;68.10
25140;DHT22;39015;48.106;-1.682;2023-02-13T20:06:21;14.20;68.10
25140;DHT22;39015;48.106;-1.682;2023-02-13T20:08:49;14.20;68.10
25140;DHT22;39015;48.106;-1.682;2023-02-13T20:11:17;14.20;68.20
25140;DHT22;39015;48.106;-1.682;2023-02-13T20:13:44;14.20;68.10
25140;DHT22;39015;48.106;-1.682;2023-02-13T20:16:14;14.20;68.10
25140;DHT22;39015;48.106;-1.682;2023-02-13T20:18:43;14.20;68.10
25140;DHT22;39015;48.106;-1.682;2023-02-13T20:21:11;14.20;68.10
25140;DHT22;39015;48.106;-1.682;2023-02-13T20:23:39;14.20;68.00
25140;DHT22;39015;48.106;-1.682;2023-02-13T20:26:07;14.20;68.10
25140;DHT22;39015;48.106;-1.682;2023-02-13T20:28:35;14.20;68.00
25140;DHT22;39015;48.106;-1.682;2023-02-13T20:31:07;14.20;68.00
25140;DHT22;39015;48.106;-1.682;2023-02-13T20:33:38;14.10;67.90
25140;DHT22;39015;48.106;-1.682;2023-02-13T20:36:08;14.20;67.90
25140;DHT22;39015;48.106;-1.682;2023-02-13T20:38:35;14.10;67.90
25140;DHT22;39015;48.106;-1.682;2023-02-13T20:41:06;14.20;67.90
25140;DHT22;39015;48.106;-1.682;2023-02-13T20:43:33;14.10;67.90
25140;DHT22;39015;48.106;-1.682;2023-02-13T20:46:00;14.10;67.90
25140;DHT22;39015;48.106;-1.682;2023-02-13T20:48:29;14.10;67.80
25140;DHT22;39015;48.106;-1.682;2023-02-13T20:50:57;14.10;67.80
25140;DHT22;39015;48.106;-1.682;2023-02-13T20:53:29;14.10;67.70
25140;DHT22;39015;48.106;-1.682;2023-02-13T20:56:02;14.20;68.10
25140;DHT22;39015;48.106;-1.682;2023-02-13T20:58:29;14.20;67.70
25140;DHT22;39015;48.106;-1.682;2023-02-13T21:00:56;14.20;67.60
25140;DHT22;39015;48.106;-1.682;2023-02-13T21:03:24;14.20;67.60
25140;DHT22;39015;48.106;-1.682;2023-02-13T21:05:51;14.20;67.50
25140;DHT22;39015;48.106;-1.682;2023-02-13T21:08:33;14.20;67.40
25140;DHT22;39015;48.106;-1.682;2023-02-13T21:11:03;14.20;67.40
25140;DHT22;39015;48.106;-1.682;2023-02-13T21:13:32;14.20;67.40
25140;DHT22;39015;48.106;-1.682;2023-02-13T21:16:07;14.20;67.40
